createdAt,value
2019-03-29T00:00:00.351Z,4.00
2019-03-29T00:05:05.521Z,3.80
2019-03-29T00:10:10.240Z,3.70
2019-03-29T00:15:14.698Z,3.70
2019-03-29T00:20:20.048Z,3.80
2019-03-29T00:30:29.477Z,3.90
2019-03-29T00:45:42.593Z,3.70
2019-03-29T00:50:46.691Z,3.70
2019-03-29T00:55:52.452Z,3.80
2019-03-29T01:00:56.796Z,3.80
2019-03-29T01:06:01.204Z,3.80
2019-03-29T01:11:05.609Z,3.80
2019-03-29T01:21:14.724Z,3.80
2019-03-29T01:31:24.584Z,3.70
2019-03-29T01:36:29.025Z,3.60
2019-03-29T01:46:38.094Z,3.70
2019-03-29T01:56:46.693Z,3.90
2019-03-29T02:01:50.867Z,4.00
2019-03-29T02:12:00.145Z,4.20
2019-03-29T02:17:04.362Z,4.40
2019-03-29T02:22:09.095Z,4.50
2019-03-29T02:32:17.986Z,4.60
2019-03-29T02:37:22.578Z,4.60
2019-03-29T02:47:30.630Z,4.60
2019-03-29T02:52:34.796Z,4.60
2019-03-29T02:57:38.991Z,4.60
2019-03-29T03:02:43.111Z,4.50
2019-03-29T03:07:47.384Z,4.40
2019-03-29T03:12:51.557Z,4.30
2019-03-29T03:17:55.920Z,4.10
2019-03-29T03:23:01.903Z,4.00
2019-03-29T03:28:06.272Z,3.80
2019-03-29T03:33:10.441Z,3.70
2019-03-29T03:38:14.635Z,3.60
2019-03-29T03:43:18.720Z,3.50
2019-03-29T03:48:22.833Z,3.40
2019-03-29T03:53:27.218Z,3.30
2019-03-29T03:58:32.901Z,3.20
2019-03-29T04:03:37.046Z,3.20
2019-03-29T04:08:41.295Z,3.20
2019-03-29T04:13:45.746Z,3.20
2019-03-29T04:18:51.604Z,3.10
2019-03-29T04:23:57.579Z,3.10
2019-03-29T04:29:04.748Z,3.10
2019-03-29T04:34:09.241Z,3.00
2019-03-29T04:39:13.414Z,3.20
2019-03-29T04:44:18.542Z,3.40
2019-03-29T04:49:23.010Z,3.60
2019-03-29T04:54:27.428Z,3.90
2019-03-29T04:59:31.601Z,4.10
2019-03-29T05:04:36.048Z,4.30
2019-03-29T05:09:40.298Z,4.60
2019-03-29T05:14:44.817Z,4.70
2019-03-29T05:19:48.930Z,4.80
2019-03-29T05:24:54.732Z,4.80
2019-03-29T05:29:58.898Z,4.80
2019-03-29T05:35:03.106Z,4.90
2019-03-29T05:40:08.519Z,4.90
2019-03-29T05:45:13.453Z,5.10
2019-03-29T05:50:17.712Z,5.50
2019-03-29T05:55:32.071Z,5.50
2019-03-29T06:00:27.955Z,5.50
2019-03-29T06:05:32.428Z,5.80
2019-03-29T06:10:48.397Z,6.10
2019-03-29T06:15:55.613Z,6.20
2019-03-29T06:21:00.036Z,7.10
2019-03-29T06:26:05.344Z,6.70
2019-03-29T06:31:11.396Z,6.90
2019-03-29T06:36:18.802Z,7.00
2019-03-29T06:41:23.058Z,7.00
2019-03-29T06:46:27.978Z,7.10
2019-03-29T06:51:33.100Z,7.20
2019-03-29T06:56:38.235Z,7.10
2019-03-29T07:01:42.418Z,7.20
2019-03-29T07:06:48.610Z,7.40
2019-03-29T07:11:52.741Z,7.60
2019-03-29T07:16:57.710Z,7.70
2019-03-29T07:22:01.796Z,7.80
2019-03-29T07:27:08.275Z,7.90
2019-03-29T07:32:13.068Z,8.10
2019-03-29T07:37:17.356Z,8.30
2019-03-29T07:42:22.713Z,8.60
2019-03-29T07:47:27.611Z,8.70
2019-03-29T07:52:32.742Z,8.80
2019-03-29T07:57:37.754Z,8.90
2019-03-29T08:02:41.961Z,9.20
2019-03-29T08:07:46.657Z,9.50
2019-03-29T08:12:50.794Z,9.60
2019-03-29T08:17:55.034Z,9.70
2019-03-29T08:22:59.373Z,9.60
2019-03-29T08:28:03.988Z,10.20
2019-03-29T08:33:08.407Z,10.70
2019-03-29T08:38:14.753Z,10.60
2019-03-29T08:43:19.298Z,10.60
2019-03-29T08:48:23.647Z,10.90
2019-03-29T08:53:27.808Z,10.60
2019-03-29T08:58:32.298Z,10.60
2019-03-29T09:03:37.827Z,10.20
2019-03-29T09:08:42.278Z,10.10
2019-03-29T09:13:46.405Z,10.60
2019-03-29T09:18:50.541Z,10.90
2019-03-29T09:23:54.905Z,11.00
2019-03-29T09:28:59.490Z,10.60
2019-03-29T09:34:03.678Z,10.30
2019-03-29T09:39:08.023Z,10.10
2019-03-29T09:44:12.126Z,10.00
2019-03-29T09:49:17.070Z,10.00
2019-03-29T09:54:22.707Z,9.80
2019-03-29T09:59:26.814Z,10.00
2019-03-29T10:04:31.197Z,10.50
2019-03-29T10:09:35.700Z,10.50
2019-03-29T10:14:39.891Z,10.40
2019-03-29T10:19:44.018Z,10.40
2019-03-29T10:24:48.224Z,10.20
2019-03-29T10:29:52.620Z,10.40
2019-03-29T10:34:56.792Z,10.60
2019-03-29T10:40:00.901Z,10.60
2019-03-29T10:45:06.559Z,10.60
2019-03-29T10:50:10.690Z,10.70
2019-03-29T10:55:18.685Z,10.80
2019-03-29T11:00:38.415Z,10.80
2019-03-29T11:05:42.863Z,10.90
2019-03-29T11:10:47.364Z,10.60
2019-03-29T11:15:51.807Z,10.60
2019-03-29T11:20:56.688Z,11.00
2019-03-29T11:26:01.378Z,11.80
2019-03-29T11:31:07.740Z,11.80
2019-03-29T11:36:12.280Z,11.90
2019-03-29T11:41:16.452Z,12.10
2019-03-29T11:46:20.559Z,11.90
2019-03-29T11:51:25.639Z,12.10
2019-03-29T11:56:30.988Z,12.00
2019-03-29T12:01:35.956Z,12.30
2019-03-29T12:06:40.948Z,12.80
2019-03-29T12:11:46.359Z,13.10
2019-03-29T12:16:50.536Z,13.10
2019-03-29T12:21:54.705Z,13.10
2019-03-29T12:27:00.813Z,13.40
2019-03-29T12:32:05.739Z,13.70
2019-03-29T12:37:10.679Z,14.00
2019-03-29T12:42:14.784Z,14.20
2019-03-29T12:47:18.912Z,13.60
2019-03-29T12:52:24.400Z,13.90
2019-03-29T12:57:30.026Z,14.30
2019-03-29T13:02:34.714Z,14.80
2019-03-29T13:07:39.238Z,15.20
2019-03-29T13:12:44.143Z,14.30
2019-03-29T13:17:48.259Z,14.20
2019-03-29T13:22:52.692Z,14.40
2019-03-29T13:27:59.421Z,14.30
2019-03-29T13:33:03.282Z,14.90
2019-03-29T13:38:07.484Z,13.90
2019-03-29T13:43:11.733Z,13.70
2019-03-29T13:48:15.836Z,13.80
2019-03-29T13:53:20.050Z,14.50
2019-03-29T13:58:36.576Z,14.80
2019-03-29T14:03:40.706Z,12.50
2019-03-29T14:08:44.874Z,13.80
2019-03-29T14:13:49.206Z,13.30
2019-03-29T14:18:54.262Z,12.90
2019-03-29T14:23:58.388Z,13.00
2019-03-29T14:29:02.817Z,12.70
2019-03-29T14:34:07.759Z,12.80
2019-03-29T14:39:11.870Z,12.90
2019-03-29T14:44:15.977Z,12.80
2019-03-29T14:49:20.403Z,12.70
2019-03-29T14:54:24.573Z,12.60
2019-03-29T14:59:29.943Z,12.50
2019-03-29T15:04:34.591Z,12.40
2019-03-29T15:09:38.985Z,12.40
2019-03-29T15:14:43.099Z,12.30
2019-03-29T15:19:48.027Z,12.30
2019-03-29T15:24:52.147Z,12.30
2019-03-29T15:29:56.833Z,12.20
2019-03-29T15:35:00.986Z,12.10
2019-03-29T15:40:05.995Z,12.00
2019-03-29T15:45:20.285Z,11.90
2019-03-29T15:50:16.267Z,11.90
2019-03-29T15:55:20.567Z,11.90
2019-03-29T16:00:24.828Z,11.70
2019-03-29T16:05:29.830Z,11.80
2019-03-29T16:10:34.032Z,11.50
2019-03-29T16:15:39.174Z,11.50
2019-03-29T16:20:45.333Z,11.40
2019-03-29T16:25:51.080Z,11.40
2019-03-29T16:36:01.756Z,11.30
2019-03-29T16:41:07.085Z,11.20
2019-03-29T16:46:12.383Z,11.20
2019-03-29T16:51:16.559Z,11.20
2019-03-29T16:56:21.191Z,11.20
2019-03-29T17:01:26.950Z,11.20
2019-03-29T17:06:31.299Z,11.10
2019-03-29T17:16:39.627Z,11.00
2019-03-29T17:31:54.640Z,10.80
2019-03-29T17:42:03.181Z,10.70
2019-03-29T17:47:07.483Z,10.70
2019-03-29T17:52:11.629Z,10.60
2019-03-29T18:02:21.281Z,10.50
2019-03-29T18:07:25.413Z,10.40
2019-03-29T18:12:30.242Z,10.40
2019-03-29T18:17:34.396Z,10.40
2019-03-29T18:22:38.546Z,10.30
2019-03-29T18:32:47.700Z,10.10
2019-03-29T18:37:52.027Z,10.10
2019-03-29T18:48:03.732Z,10.10
2019-03-29T19:03:18.010Z,10.10
2019-03-29T19:08:22.120Z,10.00
2019-03-29T19:13:27.160Z,10.00
2019-03-29T19:18:31.291Z,10.00
2019-03-29T19:23:36.245Z,9.90
2019-03-29T19:33:44.404Z,10.00
2019-03-29T19:38:49.304Z,10.00
2019-03-29T19:54:07.652Z,10.00
2019-03-29T19:59:08.442Z,9.90
2019-03-29T20:04:12.830Z,10.00
2019-03-29T20:09:17.275Z,9.90
2019-03-29T20:19:25.460Z,9.80
2019-03-29T20:24:31.499Z,9.80
2019-03-29T20:49:52.487Z,9.80
2019-03-29T21:20:18.558Z,9.80
2019-03-29T21:25:22.753Z,9.80
2019-03-29T21:30:27.442Z,9.80
2019-03-29T21:35:32.404Z,9.90
2019-03-29T21:40:37.429Z,9.80
2019-03-29T21:45:42.375Z,9.80
2019-03-29T21:50:46.773Z,9.80
2019-03-29T21:55:51.688Z,9.80
2019-03-29T22:06:01.612Z,9.80
2019-03-29T22:11:05.743Z,9.80
2019-03-29T22:16:11.154Z,9.70
2019-03-29T22:21:15.842Z,9.70
2019-03-29T22:26:21.297Z,9.60
2019-03-29T22:31:38.777Z,9.60
2019-03-29T22:41:47.932Z,9.60
2019-03-29T22:46:53.541Z,9.50
2019-03-29T22:51:58.301Z,9.40
2019-03-29T23:02:07.119Z,9.40
2019-03-29T23:07:11.374Z,9.40
2019-03-29T23:12:15.502Z,9.30
2019-03-29T23:22:27.115Z,9.30
2019-03-29T23:27:33.811Z,9.40
2019-03-29T23:32:38.309Z,9.40
2019-03-29T23:47:51.625Z,9.40
